createdAt,value
2022-11-27T00:00:27.414Z,36.53
2022-11-27T00:01:34.649Z,39.50
2022-11-27T00:02:40.585Z,38.00
2022-11-27T00:03:45.330Z,37.83
2022-11-27T00:04:48.056Z,36.22
2022-11-27T00:05:56.145Z,36.33
2022-11-27T00:06:58.814Z,39.65
2022-11-27T00:08:02.749Z,39.67
2022-11-27T00:09:07.166Z,39.58
2022-11-27T00:10:13.197Z,39.33
2022-11-27T00:11:17.515Z,37.33
2022-11-27T00:12:21.196Z,33.50
2022-11-27T00:13:23.962Z,35.83
2022-11-27T00:14:27.710Z,38.20
2022-11-27T00:15:30.384Z,39.90
2022-11-27T00:16:34.481Z,37.13
2022-11-27T00:17:37.244Z,34.17
2022-11-27T00:18:41.097Z,39.95
2022-11-27T00:19:45.006Z,41.85
2022-11-27T00:20:47.653Z,48.58
2022-11-27T00:21:51.416Z,51.50
2022-11-27T00:22:54.135Z,52.78
2022-11-27T00:23:59.534Z,38.88
2022-11-27T00:25:02.209Z,34.13
2022-11-27T00:26:08.537Z,32.45
2022-11-27T00:27:12.269Z,33.83
2022-11-27T00:28:14.996Z,33.40
2022-11-27T00:29:18.734Z,34.05
2022-11-27T00:30:21.434Z,33.65
2022-11-27T00:31:29.464Z,33.42
2022-11-27T00:32:32.231Z,34.22
2022-11-27T00:33:37.670Z,32.95
2022-11-27T00:34:40.659Z,33.03
2022-11-27T00:35:44.602Z,33.05
2022-11-27T00:36:48.543Z,32.20
2022-11-27T00:37:51.272Z,33.60
2022-11-27T00:38:55.030Z,34.97
2022-11-27T00:39:58.892Z,36.33
2022-11-27T00:41:07.834Z,36.25
2022-11-27T00:42:11.604Z,34.58
2022-11-27T00:43:14.454Z,33.83
2022-11-27T00:44:18.172Z,35.05
2022-11-27T00:45:20.843Z,33.78
2022-11-27T00:46:29.009Z,35.20
2022-11-27T00:47:33.103Z,35.88
2022-11-27T00:48:36.228Z,38.05
2022-11-27T00:49:39.919Z,33.03
2022-11-27T00:50:42.673Z,31.95
2022-11-27T00:51:46.372Z,32.97
2022-11-27T00:52:49.092Z,32.83
2022-11-27T00:53:53.190Z,33.10
2022-11-27T00:54:55.884Z,34.45
2022-11-27T00:55:59.864Z,36.92
2022-11-27T00:57:05.606Z,39.50
2022-11-27T00:58:08.351Z,41.88
2022-11-27T00:59:12.477Z,43.50
2022-11-27T01:00:16.264Z,41.63
2022-11-27T01:01:21.989Z,38.13
2022-11-27T01:02:24.868Z,32.58
2022-11-27T01:03:29.458Z,32.17
2022-11-27T01:04:33.255Z,29.80
2022-11-27T01:05:37.503Z,30.02
2022-11-27T01:06:41.310Z,28.95
2022-11-27T01:07:44.010Z,28.73
2022-11-27T01:08:48.352Z,28.48
2022-11-27T01:09:50.993Z,27.88
2022-11-27T01:10:56.525Z,29.77
2022-11-27T01:12:00.280Z,28.48
2022-11-27T01:13:04.322Z,29.45
2022-11-27T01:14:10.472Z,28.98
2022-11-27T01:15:13.428Z,28.23
2022-11-27T01:16:19.944Z,29.92
2022-11-27T01:17:22.642Z,29.65
2022-11-27T01:18:26.334Z,28.70
2022-11-27T01:19:29.010Z,28.83
2022-11-27T01:20:32.714Z,30.35
2022-11-27T01:21:35.641Z,34.60
2022-11-27T01:22:39.374Z,30.50
2022-11-27T01:23:42.062Z,28.75
2022-11-27T01:24:45.775Z,27.27
2022-11-27T01:27:00.219Z,28.27
2022-11-27T01:28:04.624Z,28.30
2022-11-27T01:29:08.524Z,29.83
2022-11-27T01:30:12.328Z,28.48
2022-11-27T01:31:19.150Z,27.95
2022-11-27T01:32:21.924Z,29.75
2022-11-27T01:33:25.790Z,28.85
2022-11-27T01:34:29.452Z,29.42
2022-11-27T01:35:33.827Z,30.25
2022-11-27T01:36:37.632Z,31.92
2022-11-27T01:37:40.343Z,28.88
2022-11-27T01:38:44.377Z,32.58
2022-11-27T01:39:47.033Z,32.15
2022-11-27T01:40:50.905Z,29.30
2022-11-27T01:41:54.633Z,29.08
2022-11-27T01:42:57.374Z,30.55
2022-11-27T01:44:03.913Z,30.40
2022-11-27T01:45:09.364Z,28.13
2022-11-27T01:46:19.035Z,30.70
2022-11-27T01:47:39.595Z,30.42
2022-11-27T01:48:42.233Z,28.77
2022-11-27T01:49:48.494Z,28.77
2022-11-27T01:50:52.673Z,28.95
2022-11-27T01:51:58.072Z,29.23
2022-11-27T01:53:04.133Z,21.58
2022-11-27T01:54:08.162Z,29.45
2022-11-27T01:55:19.060Z,27.52
2022-11-27T01:56:22.562Z,29.10
2022-11-27T01:57:28.897Z,29.20
2022-11-27T01:58:33.981Z,30.55
2022-11-27T01:59:38.422Z,29.95
2022-11-27T02:00:42.784Z,33.78
2022-11-27T02:01:45.595Z,36.45
2022-11-27T02:02:49.623Z,36.30
2022-11-27T02:03:52.869Z,34.70
2022-11-27T02:04:56.843Z,35.75
2022-11-27T02:05:59.512Z,37.53
2022-11-27T02:07:03.275Z,35.42
2022-11-27T02:08:08.764Z,36.38
2022-11-27T02:09:12.504Z,38.30
2022-11-27T02:10:16.324Z,40.70
2022-11-27T02:11:24.995Z,38.47
2022-11-27T02:12:30.211Z,42.08
2022-11-27T02:13:36.254Z,36.53
2022-11-27T02:14:49.983Z,36.80
2022-11-27T02:16:00.770Z,41.58
2022-11-27T02:17:06.642Z,41.50
2022-11-27T02:18:15.262Z,38.28
2022-11-27T02:19:28.883Z,38.38
2022-11-27T02:20:41.334Z,37.00
2022-11-27T02:21:48.933Z,36.90
2022-11-27T02:23:04.201Z,32.95
2022-11-27T02:24:36.928Z,32.83
2022-11-27T02:25:45.094Z,33.20
2022-11-27T02:27:49.185Z,36.33
2022-11-27T02:29:03.165Z,35.47
2022-11-27T02:30:08.872Z,34.55
2022-11-27T02:31:14.529Z,32.55
2022-11-27T02:32:24.073Z,33.25
2022-11-27T02:33:27.773Z,32.55
2022-11-27T02:34:36.043Z,32.72
2022-11-27T02:35:43.994Z,32.05
2022-11-27T02:36:50.932Z,35.60
2022-11-27T02:37:59.723Z,34.72
2022-11-27T02:39:05.474Z,35.28
2022-11-27T02:40:12.424Z,34.17
2022-11-27T02:41:19.742Z,35.90
2022-11-27T02:42:23.794Z,33.97
2022-11-27T02:43:30.878Z,34.97
2022-11-27T02:44:37.965Z,33.17
2022-11-27T02:45:44.354Z,33.92
2022-11-27T02:46:47.466Z,36.72
2022-11-27T02:47:52.145Z,37.33
2022-11-27T02:48:59.053Z,37.05
2022-11-27T02:50:02.755Z,39.40
2022-11-27T02:51:07.633Z,36.83
2022-11-27T02:52:12.866Z,36.65
2022-11-27T02:53:19.523Z,36.00
2022-11-27T02:54:25.843Z,37.17
2022-11-27T02:55:32.797Z,39.65
2022-11-27T02:56:35.856Z,41.53
2022-11-27T02:57:40.877Z,38.97
2022-11-27T02:58:43.545Z,41.25
2022-11-27T02:59:49.293Z,40.92
2022-11-27T03:00:52.076Z,36.97
2022-11-27T03:01:59.010Z,37.78
2022-11-27T03:03:04.805Z,37.20
2022-11-27T03:04:11.896Z,36.63
2022-11-27T03:05:19.125Z,35.63
2022-11-27T03:06:26.720Z,35.42
2022-11-27T03:07:33.551Z,33.78
2022-11-27T03:08:40.277Z,35.35
2022-11-27T03:09:44.937Z,34.33
2022-11-27T03:10:53.096Z,31.65
2022-11-27T03:11:57.209Z,32.80
2022-11-27T03:13:01.973Z,31.08
2022-11-27T03:14:07.493Z,31.33
2022-11-27T03:15:13.194Z,32.33
2022-11-27T03:16:20.050Z,31.15
2022-11-27T03:17:37.423Z,32.60
2022-11-27T03:18:43.174Z,31.50
2022-11-27T03:19:51.352Z,28.63
2022-11-27T03:20:59.874Z,28.40
2022-11-27T03:22:04.601Z,28.15
2022-11-27T03:23:08.373Z,30.35
2022-11-27T03:24:12.292Z,29.27
2022-11-27T03:25:16.899Z,28.52
2022-11-27T03:26:19.700Z,28.73
2022-11-27T03:27:26.814Z,30.45
2022-11-27T03:28:30.005Z,33.65
2022-11-27T03:29:37.737Z,29.95
2022-11-27T03:30:42.393Z,29.63
2022-11-27T03:31:46.295Z,31.88
2022-11-27T03:32:49.013Z,31.50
2022-11-27T03:33:53.030Z,33.28
2022-11-27T03:34:56.099Z,30.38
2022-11-27T03:35:59.934Z,30.17
2022-11-27T03:37:02.595Z,29.23
2022-11-27T03:38:06.335Z,27.98
2022-11-27T03:39:09.194Z,28.88
2022-11-27T03:40:13.954Z,29.65
2022-11-27T03:41:21.234Z,31.25
2022-11-27T03:42:29.174Z,33.78
2022-11-27T03:43:36.345Z,29.60
2022-11-27T03:44:44.492Z,28.63
2022-11-27T03:45:54.487Z,28.38
2022-11-27T03:47:04.572Z,27.27
2022-11-27T03:48:19.075Z,27.95
2022-11-27T03:49:26.426Z,27.83
2022-11-27T03:50:37.104Z,27.05
2022-11-27T03:51:43.899Z,28.35
2022-11-27T03:52:54.444Z,28.58
2022-11-27T03:54:01.033Z,27.75
2022-11-27T03:55:10.656Z,26.77
2022-11-27T03:56:19.625Z,27.08
2022-11-27T03:57:26.081Z,29.67
2022-11-27T03:58:35.515Z,30.33
2022-11-27T03:59:40.605Z,34.05
2022-11-27T04:00:45.572Z,32.83
2022-11-27T04:01:49.830Z,32.28
2022-11-27T04:02:54.564Z,31.10
2022-11-27T04:03:57.433Z,32.60
2022-11-27T04:05:01.291Z,34.13
2022-11-27T04:06:05.426Z,30.65
2022-11-27T04:07:08.155Z,33.13
2022-11-27T04:08:11.843Z,35.38
2022-11-27T04:09:14.490Z,34.97
2022-11-27T04:10:18.278Z,31.67
2022-11-27T04:11:22.023Z,29.08
2022-11-27T04:12:24.666Z,31.08
2022-11-27T04:13:28.363Z,31.08
2022-11-27T04:14:31.034Z,33.35
2022-11-27T04:15:34.733Z,31.52
2022-11-27T04:16:37.534Z,33.50
2022-11-27T04:17:42.746Z,36.70
2022-11-27T04:18:45.434Z,34.33
2022-11-27T04:19:49.104Z,35.33
2022-11-27T04:20:51.775Z,35.55
2022-11-27T04:21:55.758Z,37.05
2022-11-27T04:22:58.535Z,34.17
2022-11-27T04:24:02.262Z,31.77
2022-11-27T04:25:05.957Z,31.88
2022-11-27T04:26:09.763Z,32.03
2022-11-27T04:27:12.554Z,31.55
2022-11-27T04:28:17.737Z,32.40
2022-11-27T04:29:20.408Z,34.70
2022-11-27T04:30:24.373Z,36.17
2022-11-27T04:31:27.140Z,36.97
2022-11-27T04:32:31.015Z,36.40
2022-11-27T04:33:35.158Z,37.45
2022-11-27T04:34:39.138Z,35.70
2022-11-27T04:35:42.078Z,30.90
2022-11-27T04:36:46.416Z,33.22
2022-11-27T04:37:49.023Z,37.13
2022-11-27T04:38:52.774Z,37.30
2022-11-27T04:39:55.414Z,36.70
2022-11-27T04:40:59.375Z,38.42
2022-11-27T04:42:02.022Z,40.47
2022-11-27T04:43:05.764Z,40.35
2022-11-27T04:44:08.466Z,39.88
2022-11-27T04:45:12.662Z,41.00
2022-11-27T04:46:15.370Z,35.55
2022-11-27T04:47:19.192Z,40.25
2022-11-27T04:48:21.872Z,40.17
2022-11-27T04:49:26.991Z,41.38
2022-11-27T04:50:29.671Z,40.58
2022-11-27T04:51:33.425Z,38.88
2022-11-27T04:52:36.138Z,38.53
2022-11-27T04:53:39.923Z,39.03
2022-11-27T04:54:42.749Z,39.33
2022-11-27T04:55:46.613Z,41.70
2022-11-27T04:56:49.295Z,39.33
2022-11-27T04:57:53.015Z,41.22
2022-11-27T04:58:55.759Z,36.85
2022-11-27T04:59:59.502Z,41.63
2022-11-27T05:01:02.284Z,39.38
2022-11-27T05:02:06.290Z,41.67
2022-11-27T05:03:08.943Z,36.35
2022-11-27T05:04:12.832Z,40.15
2022-11-27T05:05:17.564Z,38.72
2022-11-27T05:06:22.866Z,39.13
2022-11-27T05:07:25.726Z,39.10
2022-11-27T05:08:31.095Z,39.42
2022-11-27T05:09:33.761Z,41.65
2022-11-27T05:10:37.443Z,42.05
2022-11-27T05:11:40.211Z,44.47
2022-11-27T05:12:43.929Z,40.65
2022-11-27T05:13:46.613Z,40.03
2022-11-27T05:14:50.314Z,44.40
2022-11-27T05:15:52.988Z,44.72
2022-11-27T05:16:58.065Z,43.55
2022-11-27T05:18:00.754Z,42.22
2022-11-27T05:19:04.539Z,42.58
2022-11-27T05:20:09.514Z,41.58
2022-11-27T05:21:13.530Z,43.67
2022-11-27T05:22:17.295Z,42.25
2022-11-27T05:23:19.982Z,40.65
2022-11-27T05:24:26.638Z,41.90
2022-11-27T05:25:29.352Z,41.28
2022-11-27T05:26:33.125Z,40.28
2022-11-27T05:27:36.925Z,38.40
2022-11-27T05:28:39.544Z,41.85
2022-11-27T05:29:43.886Z,40.80
2022-11-27T05:30:46.744Z,39.83
2022-11-27T05:31:50.706Z,38.03
2022-11-27T05:32:54.594Z,43.20
2022-11-27T05:33:57.336Z,38.00
2022-11-27T05:35:01.101Z,40.22
2022-11-27T05:36:03.893Z,39.50
2022-11-27T05:37:09.452Z,40.85
2022-11-27T05:38:12.830Z,38.75
2022-11-27T05:39:16.664Z,40.42
2022-11-27T05:40:19.563Z,39.47
2022-11-27T05:41:23.412Z,40.40
2022-11-27T05:42:26.029Z,41.03
2022-11-27T05:43:29.824Z,40.80
2022-11-27T05:44:32.471Z,39.47
2022-11-27T05:45:36.232Z,39.60
2022-11-27T05:46:38.908Z,39.72
2022-11-27T05:47:42.675Z,40.50
2022-11-27T05:48:45.404Z,44.00
2022-11-27T05:49:49.144Z,43.80
2022-11-27T05:50:51.765Z,45.47
2022-11-27T05:51:55.534Z,41.55
2022-11-27T05:52:59.687Z,43.92
2022-11-27T05:54:03.366Z,40.92
2022-11-27T05:55:07.144Z,40.85
2022-11-27T05:56:12.634Z,39.83
2022-11-27T05:57:16.327Z,40.13
2022-11-27T05:58:19.242Z,42.03
2022-11-27T05:59:23.056Z,41.10
2022-11-27T06:00:27.183Z,42.22
2022-11-27T06:01:30.939Z,41.63
2022-11-27T06:02:33.816Z,42.13
2022-11-27T06:03:39.265Z,44.50
2022-11-27T06:04:43.171Z,46.25
2022-11-27T06:05:45.992Z,43.08
2022-11-27T06:06:49.724Z,45.10
2022-11-27T06:07:52.503Z,45.95
2022-11-27T06:08:57.841Z,43.85
2022-11-27T06:10:00.453Z,46.25
2022-11-27T06:11:08.691Z,44.28
2022-11-27T06:12:11.350Z,48.65
2022-11-27T06:13:15.574Z,47.28
2022-11-27T06:14:18.285Z,39.65
2022-11-27T06:15:21.985Z,39.13
2022-11-27T06:16:26.204Z,42.10
2022-11-27T06:17:29.953Z,40.95
2022-11-27T06:18:32.725Z,43.55
2022-11-27T06:19:36.531Z,42.15
2022-11-27T06:20:43.768Z,39.08
2022-11-27T06:21:48.473Z,40.92
2022-11-27T06:22:51.131Z,35.58
2022-11-27T06:23:57.759Z,34.42
2022-11-27T06:25:00.414Z,35.85
2022-11-27T06:26:17.583Z,36.58
2022-11-27T06:27:20.264Z,33.92
2022-11-27T06:28:23.982Z,31.85
2022-11-27T06:29:26.684Z,32.08
2022-11-27T06:30:30.414Z,33.53
2022-11-27T06:31:33.617Z,33.53
2022-11-27T06:32:37.534Z,33.55
2022-11-27T06:33:40.192Z,30.75
2022-11-27T06:34:43.905Z,29.45
2022-11-27T06:35:46.555Z,29.52
2022-11-27T06:36:50.811Z,28.70
2022-11-27T06:37:53.535Z,28.13
2022-11-27T06:38:58.754Z,32.78
2022-11-27T06:40:01.443Z,32.25
2022-11-27T06:41:07.315Z,32.75
2022-11-27T06:42:09.943Z,30.85
2022-11-27T06:43:13.714Z,30.80
2022-11-27T06:44:16.414Z,29.00
2022-11-27T06:45:20.135Z,30.83
2022-11-27T06:46:23.822Z,31.08
2022-11-27T06:47:27.533Z,29.75
2022-11-27T06:48:30.562Z,31.23
2022-11-27T06:49:34.294Z,30.65
2022-11-27T06:50:36.924Z,29.02
2022-11-27T06:51:40.663Z,29.90
2022-11-27T06:52:43.345Z,29.48
2022-11-27T06:53:47.081Z,30.70
2022-11-27T06:54:51.132Z,30.20
2022-11-27T06:55:54.842Z,29.33
2022-11-27T06:56:58.672Z,30.20
2022-11-27T06:58:02.372Z,28.95
2022-11-27T06:59:06.318Z,29.98
2022-11-27T07:00:09.985Z,30.15
2022-11-27T07:01:14.630Z,29.77
2022-11-27T07:02:17.563Z,31.17
2022-11-27T07:03:21.387Z,29.63
2022-11-27T07:04:33.084Z,30.67
2022-11-27T07:05:40.489Z,30.70
2022-11-27T07:06:45.181Z,30.70
2022-11-27T07:07:47.891Z,30.48
2022-11-27T07:08:51.943Z,30.27
2022-11-27T07:09:56.134Z,31.45
2022-11-27T07:11:03.352Z,31.05
2022-11-27T07:12:06.454Z,32.67
2022-11-27T07:13:10.175Z,32.45
2022-11-27T07:14:14.002Z,32.10
2022-11-27T07:15:16.847Z,35.47
2022-11-27T07:16:20.631Z,34.67
2022-11-27T07:17:24.446Z,35.05
2022-11-27T07:18:27.095Z,34.88
2022-11-27T07:19:30.815Z,36.58
2022-11-27T07:20:33.525Z,35.70
2022-11-27T07:21:38.527Z,35.67
2022-11-27T07:22:41.264Z,36.45
2022-11-27T07:23:46.075Z,36.70
2022-11-27T07:24:48.701Z,36.22
2022-11-27T07:25:53.867Z,37.67
2022-11-27T07:26:56.638Z,38.33
2022-11-27T07:28:00.360Z,38.90
2022-11-27T07:29:03.194Z,42.28
2022-11-27T07:30:08.463Z,40.97
2022-11-27T07:31:11.624Z,41.38
2022-11-27T07:32:15.503Z,39.42
2022-11-27T07:33:18.283Z,39.70
2022-11-27T07:34:22.144Z,41.55
2022-11-27T07:35:24.804Z,42.13
2022-11-27T07:36:30.609Z,42.55
2022-11-27T07:37:33.682Z,37.65
2022-11-27T07:38:37.453Z,37.15
2022-11-27T07:40:01.238Z,38.35
2022-11-27T07:41:06.444Z,37.72
2022-11-27T07:43:35.214Z,39.53
2022-11-27T07:44:38.121Z,39.78
2022-11-27T07:45:42.060Z,38.15
2022-11-27T07:46:45.791Z,41.42
2022-11-27T07:47:48.503Z,45.90
2022-11-27T07:48:52.559Z,40.53
2022-11-27T07:49:55.758Z,38.35
2022-11-27T07:50:59.789Z,39.03
2022-11-27T07:52:03.435Z,41.20
2022-11-27T07:53:06.096Z,38.38
2022-11-27T07:54:09.783Z,36.53
2022-11-27T07:55:12.454Z,35.40
2022-11-27T07:56:18.032Z,35.63
2022-11-27T07:57:20.653Z,35.03
2022-11-27T07:58:24.343Z,33.33
2022-11-27T07:59:27.160Z,32.92
2022-11-27T08:00:30.926Z,32.85
2022-11-27T08:01:34.764Z,32.38
2022-11-27T08:02:37.426Z,34.78
2022-11-27T08:03:41.117Z,32.63
2022-11-27T08:04:44.174Z,32.00
2022-11-27T08:05:48.184Z,32.22
2022-11-27T08:06:51.873Z,31.13
2022-11-27T08:07:54.673Z,33.28
2022-11-27T08:08:58.994Z,31.50
2022-11-27T08:10:01.691Z,31.85
2022-11-27T08:11:05.379Z,33.05
2022-11-27T08:12:10.544Z,30.73
2022-11-27T08:13:13.339Z,30.42
2022-11-27T08:14:19.372Z,31.35
2022-11-27T08:15:22.024Z,30.83
2022-11-27T08:16:25.870Z,31.00
2022-11-27T08:17:28.765Z,31.38
2022-11-27T08:18:32.423Z,34.22
2022-11-27T08:19:36.262Z,37.63
2022-11-27T08:20:39.055Z,36.20
2022-11-27T08:21:42.792Z,32.85
2022-11-27T08:22:45.445Z,35.63
2022-11-27T08:23:49.344Z,34.67
2022-11-27T08:24:53.069Z,31.92
2022-11-27T08:25:55.750Z,31.77
2022-11-27T08:26:59.525Z,29.38
2022-11-27T08:28:03.672Z,29.20
2022-11-27T08:29:07.667Z,29.98
2022-11-27T08:30:10.902Z,28.65
2022-11-27T08:31:15.814Z,27.35
2022-11-27T08:32:19.546Z,29.30
2022-11-27T08:33:22.214Z,28.67
2022-11-27T08:34:27.033Z,30.52
2022-11-27T08:35:30.865Z,27.20
2022-11-27T08:36:34.909Z,28.05
2022-11-27T08:37:37.659Z,28.67
2022-11-27T08:38:41.879Z,29.52
2022-11-27T08:39:45.615Z,28.98
2022-11-27T08:40:54.726Z,28.95
2022-11-27T08:41:58.624Z,27.52
2022-11-27T08:43:01.298Z,26.40
2022-11-27T08:44:09.265Z,23.67
2022-11-27T08:45:12.287Z,26.23
2022-11-27T08:46:16.067Z,26.10
2022-11-27T08:47:18.762Z,25.48
2022-11-27T08:48:23.033Z,24.38
2022-11-27T08:49:26.753Z,24.25
2022-11-27T08:50:29.440Z,27.38
2022-11-27T08:51:33.115Z,27.60
2022-11-27T08:52:36.093Z,25.48
2022-11-27T08:53:40.265Z,24.98
2022-11-27T08:54:43.288Z,26.45
2022-11-27T08:55:47.423Z,24.50
2022-11-27T08:56:53.175Z,24.95
2022-11-27T08:57:56.093Z,26.38
2022-11-27T08:59:00.012Z,28.05
2022-11-27T09:00:05.636Z,26.33
2022-11-27T09:01:12.711Z,27.45
2022-11-27T09:02:16.592Z,28.23
2022-11-27T09:03:19.225Z,27.27
2022-11-27T09:04:22.979Z,28.13
2022-11-27T09:05:25.793Z,28.58
2022-11-27T09:06:31.013Z,28.92
2022-11-27T09:07:33.725Z,29.10
2022-11-27T09:08:37.503Z,28.13
2022-11-27T09:09:41.517Z,26.83
2022-11-27T09:10:44.171Z,25.75
2022-11-27T09:11:48.592Z,25.70
2022-11-27T09:12:51.406Z,26.60
2022-11-27T09:13:55.282Z,29.08
2022-11-27T09:14:58.042Z,25.67
2022-11-27T09:16:03.162Z,25.20
2022-11-27T09:17:05.902Z,24.85
2022-11-27T09:18:09.682Z,24.45
2022-11-27T09:19:12.279Z,23.55
2022-11-27T09:20:16.270Z,24.55
2022-11-27T09:21:22.077Z,25.15
2022-11-27T09:22:24.804Z,24.27
2022-11-27T09:23:28.664Z,23.98
2022-11-27T09:24:32.383Z,23.63
2022-11-27T09:25:35.124Z,23.85
2022-11-27T09:26:38.885Z,22.67
2022-11-27T09:27:41.555Z,21.30
2022-11-27T09:28:45.923Z,22.70
2022-11-27T09:29:49.814Z,22.45
2022-11-27T09:30:55.368Z,22.80
2022-11-27T09:32:00.642Z,23.20
2022-11-27T09:33:03.755Z,23.60
2022-11-27T09:34:07.634Z,27.85
2022-11-27T09:35:10.371Z,27.45
2022-11-27T09:36:15.956Z,25.30
2022-11-27T09:37:19.726Z,22.38
2022-11-27T09:38:23.830Z,22.35
2022-11-27T09:39:30.684Z,22.50
2022-11-27T09:40:34.368Z,21.35
2022-11-27T09:41:42.422Z,20.80
2022-11-27T09:42:50.844Z,19.27
2022-11-27T09:43:57.057Z,21.02
2022-11-27T09:45:01.035Z,19.92
2022-11-27T09:46:08.493Z,18.15
2022-11-27T09:47:18.016Z,19.15
2022-11-27T09:48:23.781Z,18.20
2022-11-27T09:49:30.494Z,17.98
2022-11-27T09:50:43.017Z,17.63
2022-11-27T09:51:57.529Z,18.83
2022-11-27T09:53:07.790Z,17.63
2022-11-27T09:54:17.544Z,18.85
2022-11-27T09:55:25.913Z,18.58
2022-11-27T09:56:30.424Z,17.48
2022-11-27T09:57:38.843Z,17.05
2022-11-27T09:58:42.799Z,17.15
2022-11-27T09:59:50.772Z,16.70
2022-11-27T10:00:53.523Z,17.45
2022-11-27T10:01:58.750Z,18.10
2022-11-27T10:03:05.054Z,17.08
2022-11-27T10:04:10.434Z,18.20
2022-11-27T10:05:19.267Z,17.58
2022-11-27T10:06:28.334Z,18.55
2022-11-27T10:07:39.198Z,17.92
2022-11-27T10:08:47.859Z,17.45
2022-11-27T10:10:10.535Z,16.02
2022-11-27T10:11:21.601Z,16.00
2022-11-27T10:12:31.024Z,16.38
2022-11-27T10:13:52.094Z,16.75
2022-11-27T10:15:04.210Z,15.48
2022-11-27T10:16:13.854Z,16.92
2022-11-27T10:17:20.653Z,15.73
2022-11-27T10:18:31.884Z,16.65
2022-11-27T10:19:44.329Z,15.85
2022-11-27T10:20:50.422Z,14.48
2022-11-27T10:21:56.959Z,14.93
2022-11-27T10:23:04.646Z,14.35
2022-11-27T10:24:15.051Z,16.75
2022-11-27T10:25:21.106Z,15.38
2022-11-27T10:26:29.942Z,15.27
2022-11-27T10:27:38.985Z,13.43
2022-11-27T10:28:47.465Z,15.75
2022-11-27T10:29:54.164Z,13.93
2022-11-27T10:31:02.412Z,14.02
2022-11-27T10:32:26.690Z,14.45
2022-11-27T10:33:44.381Z,14.10
2022-11-27T10:34:50.484Z,13.75
2022-11-27T10:35:53.474Z,13.02
2022-11-27T10:36:58.151Z,12.20
2022-11-27T10:38:07.241Z,13.05
2022-11-27T10:39:15.513Z,12.52
2022-11-27T10:40:22.892Z,13.30
2022-11-27T10:43:01.423Z,13.15
2022-11-27T10:44:19.012Z,13.05
2022-11-27T10:45:25.470Z,12.25
2022-11-27T10:46:31.162Z,12.68
2022-11-27T10:47:35.094Z,12.38
2022-11-27T10:48:39.274Z,11.65
2022-11-27T10:49:44.195Z,11.95
2022-11-27T10:50:49.113Z,11.60
2022-11-27T10:51:52.815Z,13.02
2022-11-27T10:52:59.595Z,11.80
2022-11-27T10:54:03.053Z,13.27
2022-11-27T10:55:19.163Z,12.57
2022-11-27T10:56:42.973Z,10.85
2022-11-27T10:57:55.203Z,12.52
2022-11-27T10:59:00.690Z,12.00
2022-11-27T11:00:10.722Z,11.90
2022-11-27T11:01:16.153Z,12.18
2022-11-27T11:02:31.086Z,12.82
2022-11-27T11:03:35.895Z,12.63
2022-11-27T11:04:41.133Z,11.48
2022-11-27T11:06:19.390Z,11.93
2022-11-27T11:07:26.715Z,10.75
2022-11-27T11:08:30.264Z,10.52
2022-11-27T11:09:36.293Z,10.88
2022-11-27T11:10:44.123Z,11.52
2022-11-27T11:11:47.955Z,11.10
2022-11-27T11:12:50.712Z,11.20
2022-11-27T11:13:55.559Z,10.45
2022-11-27T11:15:01.903Z,10.30
2022-11-27T11:16:10.926Z,11.52
2022-11-27T11:17:18.754Z,11.10
2022-11-27T11:18:22.631Z,10.70
2022-11-27T11:19:36.711Z,12.18
2022-11-27T11:20:49.624Z,11.75
2022-11-27T11:21:53.852Z,12.20
2022-11-27T11:22:56.594Z,11.55
2022-11-27T11:24:03.503Z,11.50
2022-11-27T11:25:06.593Z,12.63
2022-11-27T11:26:27.493Z,10.88
2022-11-27T11:27:32.741Z,10.30
2022-11-27T11:28:42.503Z,11.02
2022-11-27T11:29:50.423Z,11.18
2022-11-27T11:31:03.991Z,11.30
2022-11-27T11:32:12.835Z,10.68
2022-11-27T11:33:15.798Z,10.57
2022-11-27T11:34:23.071Z,11.45
2022-11-27T11:35:28.985Z,10.60
2022-11-27T11:36:34.242Z,10.68
2022-11-27T11:37:39.764Z,11.13
2022-11-27T11:38:45.817Z,10.85
2022-11-27T11:39:56.031Z,10.15
2022-11-27T11:41:02.833Z,10.85
2022-11-27T11:42:11.743Z,10.52
2022-11-27T11:43:25.566Z,11.40
2022-11-27T11:44:34.247Z,10.02
2022-11-27T11:45:45.454Z,10.98
2022-11-27T11:46:54.014Z,10.95
2022-11-27T11:47:59.135Z,10.45
2022-11-27T11:49:06.412Z,9.80
2022-11-27T11:50:14.353Z,11.02
2022-11-27T11:51:20.558Z,10.00
2022-11-27T11:52:47.102Z,10.95
2022-11-27T11:53:57.395Z,9.52
2022-11-27T11:55:05.926Z,10.15
2022-11-27T11:56:23.834Z,9.95
2022-11-27T11:58:02.835Z,10.10
2022-11-27T11:59:16.316Z,9.60
2022-11-27T12:00:28.283Z,9.90
2022-11-27T12:01:48.033Z,9.43
2022-11-27T12:03:16.522Z,9.52
2022-11-27T12:05:03.687Z,8.88
2022-11-27T12:06:25.764Z,9.00
2022-11-27T12:07:38.928Z,9.23
2022-11-27T12:08:52.890Z,7.82
2022-11-27T12:10:00.145Z,9.35
2022-11-27T12:11:10.301Z,8.45
2022-11-27T12:12:21.671Z,9.07
2022-11-27T12:13:39.015Z,9.38
2022-11-27T12:14:45.571Z,9.25
2022-11-27T12:15:55.439Z,9.27
2022-11-27T12:17:07.386Z,8.80
2022-11-27T12:18:15.094Z,8.43
2022-11-27T12:19:48.501Z,7.70
2022-11-27T12:21:00.793Z,8.63
2022-11-27T12:22:13.173Z,8.95
2022-11-27T12:23:46.445Z,8.23
2022-11-27T12:24:57.096Z,9.07
2022-11-27T12:26:06.826Z,8.43
2022-11-27T12:27:19.475Z,8.70
2022-11-27T12:28:33.054Z,8.35
2022-11-27T12:29:54.929Z,9.88
2022-11-27T12:31:03.162Z,8.45
2022-11-27T12:32:39.335Z,8.73
2022-11-27T12:33:56.202Z,8.10
2022-11-27T12:35:08.463Z,8.63
2022-11-27T12:36:24.610Z,7.88
2022-11-27T12:37:40.873Z,8.30
2022-11-27T12:38:56.131Z,8.43
2022-11-27T12:40:10.784Z,9.90
2022-11-27T12:41:23.892Z,8.55
2022-11-27T12:42:31.037Z,8.23
2022-11-27T12:43:38.658Z,8.25
2022-11-27T12:44:53.337Z,9.15
2022-11-27T12:46:02.093Z,8.73
2022-11-27T12:47:09.971Z,8.13
2022-11-27T12:48:16.640Z,8.75
2022-11-27T12:49:25.051Z,8.25
2022-11-27T12:50:36.823Z,8.52
2022-11-27T12:51:44.758Z,9.35
2022-11-27T12:52:54.409Z,8.65
2022-11-27T12:54:02.870Z,8.65
2022-11-27T12:55:12.486Z,9.88
2022-11-27T12:56:21.181Z,9.65
2022-11-27T12:57:32.156Z,9.13
2022-11-27T12:58:39.644Z,9.30
2022-11-27T12:59:45.618Z,8.90
2022-11-27T13:00:51.556Z,9.25
2022-11-27T13:02:01.117Z,8.80
2022-11-27T13:03:07.054Z,9.70
2022-11-27T13:04:19.996Z,8.63
2022-11-27T13:05:26.313Z,8.88
2022-11-27T13:06:31.854Z,9.55
2022-11-27T13:07:44.589Z,9.07
2022-11-27T13:08:52.624Z,9.30
2022-11-27T13:10:02.460Z,9.02
2022-11-27T13:11:07.928Z,8.45
2022-11-27T13:12:17.866Z,8.95
2022-11-27T13:13:25.728Z,9.25
2022-11-27T13:14:28.904Z,9.02
2022-11-27T13:15:36.184Z,9.55
2022-11-27T13:16:45.364Z,8.57
2022-11-27T13:17:51.962Z,9.85
2022-11-27T13:18:59.524Z,9.65
2022-11-27T13:20:03.957Z,10.05
2022-11-27T13:21:11.092Z,9.50
2022-11-27T13:22:19.809Z,9.63
2022-11-27T13:23:23.567Z,9.40
2022-11-27T13:24:33.366Z,9.27
2022-11-27T13:25:51.353Z,8.82
2022-11-27T13:27:01.282Z,8.68
2022-11-27T13:28:06.424Z,8.98
2022-11-27T13:29:17.589Z,9.43
2022-11-27T13:30:24.107Z,9.30
2022-11-27T13:31:30.648Z,9.15
2022-11-27T13:32:36.387Z,9.88
2022-11-27T13:33:42.325Z,10.23
2022-11-27T13:34:47.412Z,9.52
2022-11-27T13:35:51.242Z,10.18
2022-11-27T13:36:59.194Z,9.90
2022-11-27T13:38:09.384Z,10.02
2022-11-27T13:39:24.387Z,10.00
2022-11-27T13:40:29.815Z,9.13
2022-11-27T13:41:40.145Z,10.10
2022-11-27T13:42:46.784Z,9.98
2022-11-27T13:43:51.047Z,10.52
2022-11-27T13:44:55.869Z,10.07
2022-11-27T13:46:05.469Z,10.23
2022-11-27T13:47:12.458Z,9.52
2022-11-27T13:48:39.428Z,9.93
2022-11-27T13:49:46.601Z,9.88
2022-11-27T13:50:55.686Z,9.68
2022-11-27T13:52:11.435Z,10.50
2022-11-27T13:53:14.124Z,9.85
2022-11-27T13:54:25.918Z,9.48
2022-11-27T13:55:33.383Z,9.45
2022-11-27T13:56:39.475Z,10.43
2022-11-27T13:57:53.233Z,9.68
2022-11-27T13:58:56.071Z,9.63
2022-11-27T14:00:01.565Z,10.68
2022-11-27T14:01:17.527Z,10.40
2022-11-27T14:02:21.429Z,11.00
2022-11-27T14:03:26.166Z,12.80
2022-11-27T14:04:32.275Z,12.70
2022-11-27T14:05:38.275Z,11.88
2022-11-27T14:06:44.305Z,11.50
2022-11-27T14:07:50.239Z,10.32
2022-11-27T14:08:57.398Z,11.40
2022-11-27T14:10:08.644Z,11.30
2022-11-27T14:11:13.300Z,11.65
2022-11-27T14:12:28.231Z,10.30
2022-11-27T14:13:38.523Z,11.23
2022-11-27T14:14:42.513Z,11.27
2022-11-27T14:16:01.774Z,10.50
2022-11-27T14:17:07.963Z,11.48
2022-11-27T14:18:20.253Z,10.15
2022-11-27T14:19:33.640Z,10.93
2022-11-27T14:20:48.723Z,11.25